sensor_id;sensor_type;location;lat;lon;timestamp;pressure;altitude;pressure_sealevel;temperature;humidity
3250;BME280;1637;42.020;23.992;2022-09-16T00:00:47;92515.97;;;18.47;73.00
3250;BME280;1637;42.020;23.992;2022-09-16T00:03:15;92549.09;;;18.61;72.70
3250;BME280;1637;42.020;23.992;2022-09-16T00:05:43;92511.41;;;18.53;72.57
3250;BME280;1637;42.020;23.992;2022-09-16T00:08:11;92511.47;;;18.44;72.71
3250;BME280;1637;42.020;23.992;2022-09-16T00:10:40;92516.22;;;18.68;72.12
3250;BME280;1637;42.020;23.992;2022-09-16T00:13:08;92515.28;;;18.80;71.11
3250;BME280;1637;42.020;23.992;2022-09-16T00:15:35;92514.13;;;18.63;71.39
3250;BME280;1637;42.020;23.992;2022-09-16T00:18:02;92521.41;;;18.47;72.21
3250;BME280;1637;42.020;23.992;2022-09-16T00:20:29;92525.53;;;18.25;73.42
3250;BME280;1637;42.020;23.992;2022-09-16T00:22:56;92516.03;;;18.20;73.51
3250;BME280;1637;42.020;23.992;2022-09-16T00:25:23;92516.03;;;18.20;73.60
3250;BME280;1637;42.020;23.992;2022-09-16T00:27:51;92516.81;;;18.11;74.11
3250;BME280;1637;42.020;23.992;2022-09-16T00:30:18;92513.97;;;18.06;73.83
3250;BME280;1637;42.020;23.992;2022-09-16T00:32:45;92506.25;;;18.13;73.93
3250;BME280;1637;42.020;23.992;2022-09-16T00:35:12;92499.22;;;17.98;74.27
3250;BME280;1637;42.020;23.992;2022-09-16T00:37:39;92467.94;;;17.69;74.70
3250;BME280;1637;42.020;23.992;2022-09-16T00:40:06;92503.75;;;17.92;75.02
3250;BME280;1637;42.020;23.992;2022-09-16T00:42:36;92507.97;;;18.02;74.51
3250;BME280;1637;42.020;23.992;2022-09-16T00:45:11;92509.00;;;17.95;74.30
3250;BME280;1637;42.020;23.992;2022-09-16T00:47:41;92517.00;;;18.08;74.51
3250;BME280;1637;42.020;23.992;2022-09-16T00:50:11;92509.16;;;17.92;74.72
3250;BME280;1637;42.020;23.992;2022-09-16T00:52:40;92506.03;;;17.84;75.29
3250;BME280;1637;42.020;23.992;2022-09-16T00:55:09;92507.06;;;17.96;74.53
3250;BME280;1637;42.020;23.992;2022-09-16T00:57:39;92469.91;;;17.69;74.32
3250;BME280;1637;42.020;23.992;2022-09-16T01:00:11;92485.72;;;17.70;74.34
3250;BME280;1637;42.020;23.992;2022-09-16T01:02:39;92511.56;;;17.90;74.94
3250;BME280;1637;42.020;23.992;2022-09-16T01:05:09;92507.06;;;18.05;74.13
3250;BME280;1637;42.020;23.992;2022-09-16T01:07:41;92511.13;;;18.00;74.55
3250;BME280;1637;42.020;23.992;2022-09-16T01:10:08;92493.34;;;17.90;74.35
3250;BME280;1637;42.020;23.992;2022-09-16T01:12:35;92481.34;;;17.64;75.35
3250;BME280;1637;42.020;23.992;2022-09-16T01:15:04;92492.50;;;17.66;75.82
3250;BME280;1637;42.020;23.992;2022-09-16T01:17:49;92498.66;;;17.75;75.68
3250;BME280;1637;42.020;23.992;2022-09-16T01:20:39;92499.97;;;17.89;74.89
3250;BME280;1637;42.020;23.992;2022-09-16T01:23:40;92505.28;;;17.83;75.19
3250;BME280;1637;42.020;23.992;2022-09-16T01:26:32;92510.22;;;17.67;75.94
3250;BME280;1637;42.020;23.992;2022-09-16T01:32:08;92512.19;;;17.84;75.32
3250;BME280;1637;42.020;23.992;2022-09-16T01:34:48;92508.56;;;17.60;75.96
3250;BME280;1637;42.020;23.992;2022-09-16T01:37:21;92496.38;;;17.56;76.36
3250;BME280;1637;42.020;23.992;2022-09-16T01:40:02;92497.41;;;17.49;77.10
3250;BME280;1637;42.020;23.992;2022-09-16T01:42:37;92494.13;;;17.72;76.11
3250;BME280;1637;42.020;23.992;2022-09-16T01:45:09;92491.41;;;17.72;76.28
3250;BME280;1637;42.020;23.992;2022-09-16T01:47:49;92483.88;;;17.95;75.52
3250;BME280;1637;42.020;23.992;2022-09-16T01:50:23;92493.53;;;17.77;75.75
3250;BME280;1637;42.020;23.992;2022-09-16T01:52:58;92499.56;;;17.81;75.40
3250;BME280;1637;42.020;23.992;2022-09-16T01:55:31;92508.28;;;17.76;75.91
3250;BME280;1637;42.020;23.992;2022-09-16T01:58:02;92510.69;;;17.83;75.90
3250;BME280;1637;42.020;23.992;2022-09-16T02:00:32;92500.63;;;17.66;75.86
3250;BME280;1637;42.020;23.992;2022-09-16T02:03:02;92504.34;;;17.41;76.84
3250;BME280;1637;42.020;23.992;2022-09-16T02:05:34;92498.94;;;17.41;77.02
3250;BME280;1637;42.020;23.992;2022-09-16T02:08:10;92492.75;;;17.22;78.05
3250;BME280;1637;42.020;23.992;2022-09-16T02:10:40;92493.97;;;17.39;77.03
3250;BME280;1637;42.020;23.992;2022-09-16T02:13:13;92561.97;;;17.50;77.11
3250;BME280;1637;42.020;23.992;2022-09-16T02:15:47;92510.22;;;17.67;76.44
3250;BME280;1637;42.020;23.992;2022-09-16T02:18:20;92503.91;;;17.79;75.78
3250;BME280;1637;42.020;23.992;2022-09-16T02:20:52;92505.13;;;17.78;75.50
3250;BME280;1637;42.020;23.992;2022-09-16T02:23:22;92498.50;;;17.70;76.22
3250;BME280;1637;42.020;23.992;2022-09-16T02:25:51;92501.50;;;17.44;77.21
3250;BME280;1637;42.020;23.992;2022-09-16T02:28:22;92509.50;;;17.66;76.24
3250;BME280;1637;42.020;23.992;2022-09-16T02:30:54;92496.22;;;17.41;77.42
3250;BME280;1637;42.020;23.992;2022-09-16T02:33:29;92499.69;;;17.41;77.74
3250;BME280;1637;42.020;23.992;2022-09-16T02:35:58;92464.78;;;17.25;77.31
3250;BME280;1637;42.020;23.992;2022-09-16T02:38:29;92498.78;;;17.44;76.56
3250;BME280;1637;42.020;23.992;2022-09-16T02:40:59;92496.81;;;17.27;77.34
3250;BME280;1637;42.020;23.992;2022-09-16T02:43:27;92501.03;;;17.46;76.51
3250;BME280;1637;42.020;23.992;2022-09-16T02:46:04;92503.72;;;17.18;78.27
3250;BME280;1637;42.020;23.992;2022-09-16T02:48:43;92501.75;;;17.10;80.39
3250;BME280;1637;42.020;23.992;2022-09-16T02:51:19;92499.63;;;17.05;80.94
3250;BME280;1637;42.020;23.992;2022-09-16T02:53:52;92518.69;;;16.92;81.34
3250;BME280;1637;42.020;23.992;2022-09-16T02:56:23;92507.44;;;16.63;82.44
3250;BME280;1637;42.020;23.992;2022-09-16T02:58:53;92509.97;;;16.88;81.88
3250;BME280;1637;42.020;23.992;2022-09-16T03:01:21;92508.34;;;17.00;80.41
3250;BME280;1637;42.020;23.992;2022-09-16T03:03:50;92509.75;;;17.23;79.16
3250;BME280;1637;42.020;23.992;2022-09-16T03:06:19;92508.88;;;17.44;77.84
3250;BME280;1637;42.020;23.992;2022-09-16T03:08:47;92516.03;;;17.10;79.35
3250;BME280;1637;42.020;23.992;2022-09-16T03:11:23;92503.34;;;16.89;81.37
3250;BME280;1637;42.020;23.992;2022-09-16T03:14:05;92499.94;;;16.98;80.92
3250;BME280;1637;42.020;23.992;2022-09-16T03:16:44;92497.38;;;16.94;80.96
3250;BME280;1637;42.020;23.992;2022-09-16T03:19:21;92495.75;;;17.15;79.56
3250;BME280;1637;42.020;23.992;2022-09-16T03:21:57;92487.16;;;17.07;79.05
3250;BME280;1637;42.020;23.992;2022-09-16T03:24:34;92485.81;;;17.12;78.79
3250;BME280;1637;42.020;23.992;2022-09-16T03:27:08;92495.59;;;17.18;78.76
3250;BME280;1637;42.020;23.992;2022-09-16T03:29:38;92487.66;;;17.33;78.51
3250;BME280;1637;42.020;23.992;2022-09-16T03:32:11;92564.47;;;17.27;78.58
3250;BME280;1637;42.020;23.992;2022-09-16T03:34:45;92490.78;;;17.13;78.46
3250;BME280;1637;42.020;23.992;2022-09-16T03:37:16;92503.00;;;17.36;77.20
3250;BME280;1637;42.020;23.992;2022-09-16T03:39:48;92486.44;;;17.34;77.49
3250;BME280;1637;42.020;23.992;2022-09-16T03:42:18;92491.13;;;17.43;76.39
3250;BME280;1637;42.020;23.992;2022-09-16T03:44:45;92479.81;;;17.26;77.24
3250;BME280;1637;42.020;23.992;2022-09-16T03:47:12;92482.38;;;17.21;78.50
3250;BME280;1637;42.020;23.992;2022-09-16T03:49:39;92531.16;;;16.80;80.69
3250;BME280;1637;42.020;23.992;2022-09-16T03:52:07;92481.59;;;16.53;81.73
3250;BME280;1637;42.020;23.992;2022-09-16T03:54:35;92485.19;;;16.49;83.03
3250;BME280;1637;42.020;23.992;2022-09-16T03:57:02;92483.66;;;16.39;83.88
3250;BME280;1637;42.020;23.992;2022-09-16T03:59:30;92490.16;;;16.51;82.47
3250;BME280;1637;42.020;23.992;2022-09-16T04:01:57;92489.75;;;16.62;81.29
3250;BME280;1637;42.020;23.992;2022-09-16T04:04:24;92507.72;;;16.87;82.48
3250;BME280;1637;42.020;23.992;2022-09-16T04:06:50;92506.72;;;17.02;80.79
3250;BME280;1637;42.020;23.992;2022-09-16T04:09:19;92509.88;;;17.01;82.08
3250;BME280;1637;42.020;23.992;2022-09-16T04:11:45;92488.94;;;16.92;81.71
3250;BME280;1637;42.020;23.992;2022-09-16T04:14:13;92509.56;;;17.08;84.67
3250;BME280;1637;42.020;23.992;2022-09-16T04:16:40;92509.88;;;17.01;81.43
3250;BME280;1637;42.020;23.992;2022-09-16T04:19:06;92499.97;;;17.52;82.06
3250;BME280;1637;42.020;23.992;2022-09-16T04:21:33;92500.44;;;17.51;78.77
3250;BME280;1637;42.020;23.992;2022-09-16T04:24:00;92505.41;;;17.62;78.32
3250;BME280;1637;42.020;23.992;2022-09-16T04:26:29;92506.31;;;17.59;77.95
3250;BME280;1637;42.020;23.992;2022-09-16T04:28:55;92505.88;;;17.69;76.92
3250;BME280;1637;42.020;23.992;2022-09-16T04:31:22;92506.31;;;17.77;76.97
3250;BME280;1637;42.020;23.992;2022-09-16T04:33:49;92504.34;;;17.59;76.92
3250;BME280;1637;42.020;23.992;2022-09-16T04:36:18;92509.19;;;17.73;76.35
3250;BME280;1637;42.020;23.992;2022-09-16T04:38:46;92501.03;;;17.55;77.77
3250;BME280;1637;42.020;23.992;2022-09-16T04:41:14;92513.97;;;17.24;79.96
3250;BME280;1637;42.020;23.992;2022-09-16T04:43:43;92516.94;;;17.16;79.82
3250;BME280;1637;42.020;23.992;2022-09-16T04:46:10;92513.91;;;16.96;82.16
3250;BME280;1637;42.020;23.992;2022-09-16T04:48:39;92519.59;;;16.89;82.20
3250;BME280;1637;42.020;23.992;2022-09-16T04:51:07;92515.88;;;17.05;82.20
3250;BME280;1637;42.020;23.992;2022-09-16T04:53:35;92516.78;;;17.11;82.71
3250;BME280;1637;42.020;23.992;2022-09-16T04:56:04;92518.47;;;17.36;81.73
3250;BME280;1637;42.020;23.992;2022-09-16T04:58:31;92509.31;;;17.33;80.18
3250;BME280;1637;42.020;23.992;2022-09-16T05:01:04;92528.75;;;17.68;79.50
3250;BME280;1637;42.020;23.992;2022-09-16T05:03:32;92521.50;;;18.02;77.20
3250;BME280;1637;42.020;23.992;2022-09-16T05:06:06;92522.88;;;18.67;74.92
3250;BME280;1637;42.020;23.992;2022-09-16T05:08:34;92534.78;;;19.26;72.75
3250;BME280;1637;42.020;23.992;2022-09-16T05:11:05;92545.91;;;19.61;72.01
3250;BME280;1637;42.020;23.992;2022-09-16T05:13:33;92529.03;;;20.25;68.26
3250;BME280;1637;42.020;23.992;2022-09-16T05:16:01;92537.16;;;20.49;66.95
3250;BME280;1637;42.020;23.992;2022-09-16T05:18:30;92520.63;;;20.52;66.38
3250;BME280;1637;42.020;23.992;2022-09-16T05:20:57;92527.75;;;21.70;62.95
3250;BME280;1637;42.020;23.992;2022-09-16T05:23:25;92500.97;;;21.68;61.05
3250;BME280;1637;42.020;23.992;2022-09-16T05:25:52;92519.56;;;21.70;61.10
3250;BME280;1637;42.020;23.992;2022-09-16T05:28:19;92512.38;;;22.39;59.52
3250;BME280;1637;42.020;23.992;2022-09-16T05:30:47;92517.38;;;23.03;58.66
3250;BME280;1637;42.020;23.992;2022-09-16T05:33:13;92518.19;;;23.15;58.52
3250;BME280;1637;42.020;23.992;2022-09-16T05:35:42;92510.31;;;23.22;58.44
3250;BME280;1637;42.020;23.992;2022-09-16T05:38:10;92507.13;;;23.35;58.04
3250;BME280;1637;42.020;23.992;2022-09-16T05:40:37;92506.59;;;23.68;57.34
3250;BME280;1637;42.020;23.992;2022-09-16T05:43:04;92505.03;;;24.38;56.17
3250;BME280;1637;42.020;23.992;2022-09-16T05:45:31;92506.50;;;24.22;55.63
3250;BME280;1637;42.020;23.992;2022-09-16T05:47:58;92503.84;;;24.66;54.21
3250;BME280;1637;42.020;23.992;2022-09-16T05:50:25;92508.56;;;24.60;54.51
3250;BME280;1637;42.020;23.992;2022-09-16T05:52:53;92508.41;;;25.83;50.53
3250;BME280;1637;42.020;23.992;2022-09-16T05:55:20;92515.03;;;26.57;47.85
3250;BME280;1637;42.020;23.992;2022-09-16T05:57:47;92506.53;;;26.14;49.73
3250;BME280;1637;42.020;23.992;2022-09-16T06:00:14;92507.06;;;26.01;51.45
3250;BME280;1637;42.020;23.992;2022-09-16T06:02:41;92500.63;;;25.93;51.09
3250;BME280;1637;42.020;23.992;2022-09-16T06:05:08;92503.03;;;26.60;49.24
3250;BME280;1637;42.020;23.992;2022-09-16T06:07:35;92499.59;;;26.48;48.62
3250;BME280;1637;42.020;23.992;2022-09-16T06:10:04;92504.97;;;26.65;48.53
3250;BME280;1637;42.020;23.992;2022-09-16T06:12:31;92497.47;;;26.65;49.01
3250;BME280;1637;42.020;23.992;2022-09-16T06:14:58;92495.47;;;26.19;49.99
3250;BME280;1637;42.020;23.992;2022-09-16T06:17:25;92495.69;;;26.68;49.58
3250;BME280;1637;42.020;23.992;2022-09-16T06:19:52;92489.47;;;26.67;48.54
3250;BME280;1637;42.020;23.992;2022-09-16T06:22:18;92484.38;;;25.26;51.63
3250;BME280;1637;42.020;23.992;2022-09-16T06:24:45;92479.38;;;25.99;50.00
3250;BME280;1637;42.020;23.992;2022-09-16T06:27:13;92495.19;;;26.69;48.95
3250;BME280;1637;42.020;23.992;2022-09-16T06:29:40;92487.19;;;27.31;46.79
3250;BME280;1637;42.020;23.992;2022-09-16T06:32:07;92491.25;;;27.49;46.97
3250;BME280;1637;42.020;23.992;2022-09-16T06:34:34;92496.03;;;27.92;46.37
3250;BME280;1637;42.020;23.992;2022-09-16T06:37:00;92503.16;;;28.44;45.05
3250;BME280;1637;42.020;23.992;2022-09-16T06:39:27;92500.69;;;28.40;44.16
3250;BME280;1637;42.020;23.992;2022-09-16T06:41:54;92485.75;;;28.67;43.56
3250;BME280;1637;42.020;23.992;2022-09-16T06:44:22;92481.50;;;27.73;44.88
3250;BME280;1637;42.020;23.992;2022-09-16T06:46:49;92484.78;;;27.22;45.59
3250;BME280;1637;42.020;23.992;2022-09-16T06:49:16;92482.00;;;26.98;46.87
3250;BME280;1637;42.020;23.992;2022-09-16T06:51:43;92478.72;;;26.34;48.72
3250;BME280;1637;42.020;23.992;2022-09-16T06:54:09;92483.66;;;27.07;47.02
3250;BME280;1637;42.020;23.992;2022-09-16T06:56:37;92471.38;;;27.62;46.09
3250;BME280;1637;42.020;23.992;2022-09-16T06:59:06;92484.50;;;28.50;45.40
3250;BME280;1637;42.020;23.992;2022-09-16T07:01:35;92488.22;;;28.52;44.43
3250;BME280;1637;42.020;23.992;2022-09-16T07:04:03;92497.31;;;28.98;44.02
3250;BME280;1637;42.020;23.992;2022-09-16T07:06:31;92489.81;;;28.80;44.30
3250;BME280;1637;42.020;23.992;2022-09-16T07:08:58;92489.81;;;29.57;44.29
3250;BME280;1637;42.020;23.992;2022-09-16T07:11:25;92490.34;;;30.08;42.82
3250;BME280;1637;42.020;23.992;2022-09-16T07:13:52;92470.81;;;30.40;41.95
3250;BME280;1637;42.020;23.992;2022-09-16T07:16:21;92498.44;;;30.40;41.62
3250;BME280;1637;42.020;23.992;2022-09-16T07:18:53;92496.78;;;30.71;40.94
3250;BME280;1637;42.020;23.992;2022-09-16T07:21:22;92486.91;;;30.28;41.34
3250;BME280;1637;42.020;23.992;2022-09-16T07:23:50;92490.19;;;30.95;40.39
3250;BME280;1637;42.020;23.992;2022-09-16T07:26:19;92487.69;;;31.04;41.85
3250;BME280;1637;42.020;23.992;2022-09-16T07:28:47;92484.75;;;31.52;41.20
3250;BME280;1637;42.020;23.992;2022-09-16T07:31:16;92480.53;;;31.30;42.59
3250;BME280;1637;42.020;23.992;2022-09-16T07:33:44;92497.44;;;32.32;39.65
3250;BME280;1637;42.020;23.992;2022-09-16T07:36:15;92472.94;;;31.51;40.83
3250;BME280;1637;42.020;23.992;2022-09-16T07:38:42;92480.78;;;32.32;40.44
3250;BME280;1637;42.020;23.992;2022-09-16T07:41:11;92482.25;;;32.77;37.56
3250;BME280;1637;42.020;23.992;2022-09-16T07:43:39;92496.16;;;33.00;37.92
3250;BME280;1637;42.020;23.992;2022-09-16T07:46:07;92481.00;;;31.98;39.75
3250;BME280;1637;42.020;23.992;2022-09-16T07:48:35;92494.28;;;32.80;38.50
3250;BME280;1637;42.020;23.992;2022-09-16T07:51:04;92485.94;;;32.80;38.72
3250;BME280;1637;42.020;23.992;2022-09-16T07:53:34;92491.78;;;32.68;38.99
3250;BME280;1637;42.020;23.992;2022-09-16T07:56:01;92479.75;;;32.51;37.99
3250;BME280;1637;42.020;23.992;2022-09-16T07:58:29;92472.94;;;32.16;38.95
3250;BME280;1637;42.020;23.992;2022-09-16T08:00:55;92466.47;;;32.13;40.28
3250;BME280;1637;42.020;23.992;2022-09-16T08:03:22;92467.53;;;32.46;38.40
3250;BME280;1637;42.020;23.992;2022-09-16T08:05:49;92471.56;;;33.27;37.07
3250;BME280;1637;42.020;23.992;2022-09-16T08:08:16;92466.91;;;33.83;37.65
3250;BME280;1637;42.020;23.992;2022-09-16T08:10:52;92471.06;;;34.22;34.30
3250;BME280;1637;42.020;23.992;2022-09-16T08:13:19;92468.41;;;33.53;32.45
3250;BME280;1637;42.020;23.992;2022-09-16T08:15:46;92461.78;;;32.44;34.52
3250;BME280;1637;42.020;23.992;2022-09-16T08:18:12;92453.78;;;33.15;31.87
3250;BME280;1637;42.020;23.992;2022-09-16T08:20:39;92455.53;;;32.07;33.06
3250;BME280;1637;42.020;23.992;2022-09-16T08:23:06;92450.00;;;31.71;34.23
3250;BME280;1637;42.020;23.992;2022-09-16T08:25:33;92442.78;;;32.63;33.91
3250;BME280;1637;42.020;23.992;2022-09-16T08:28:02;92444.34;;;33.18;32.88
3250;BME280;1637;42.020;23.992;2022-09-16T08:30:29;92437.56;;;32.44;31.98
3250;BME280;1637;42.020;23.992;2022-09-16T08:32:56;92448.63;;;33.03;31.65
3250;BME280;1637;42.020;23.992;2022-09-16T08:35:23;92452.69;;;33.40;31.12
3250;BME280;1637;42.020;23.992;2022-09-16T08:37:51;92439.34;;;33.08;32.29
3250;BME280;1637;42.020;23.992;2022-09-16T08:40:20;92440.59;;;32.69;32.18
3250;BME280;1637;42.020;23.992;2022-09-16T08:42:57;92432.31;;;32.85;31.27
3250;BME280;1637;42.020;23.992;2022-09-16T08:45:30;92444.25;;;32.49;32.10
3250;BME280;1637;42.020;23.992;2022-09-16T08:48:19;92438.81;;;33.25;32.82
3250;BME280;1637;42.020;23.992;2022-09-16T08:50:51;92438.06;;;33.17;31.75
3250;BME280;1637;42.020;23.992;2022-09-16T08:53:23;92424.91;;;32.87;31.13
3250;BME280;1637;42.020;23.992;2022-09-16T08:55:52;92420.63;;;31.68;32.41
3250;BME280;1637;42.020;23.992;2022-09-16T08:58:22;92427.44;;;32.03;32.62
3250;BME280;1637;42.020;23.992;2022-09-16T09:00:55;92435.72;;;32.47;32.60
3250;BME280;1637;42.020;23.992;2022-09-16T09:03:36;92427.16;;;32.22;32.26
3250;BME280;1637;42.020;23.992;2022-09-16T09:06:07;92428.91;;;32.40;32.91
3250;BME280;1637;42.020;23.992;2022-09-16T09:08:46;92437.59;;;32.01;32.72
3250;BME280;1637;42.020;23.992;2022-09-16T09:11:22;92392.28;;;31.83;33.01
3250;BME280;1637;42.020;23.992;2022-09-16T09:14:02;92425.75;;;32.44;32.36
3250;BME280;1637;42.020;23.992;2022-09-16T09:16:37;92414.66;;;31.93;33.05
3250;BME280;1637;42.020;23.992;2022-09-16T09:19:22;92420.81;;;32.06;33.09
3250;BME280;1637;42.020;23.992;2022-09-16T09:22:00;92415.31;;;32.14;32.33
3250;BME280;1637;42.020;23.992;2022-09-16T09:24:41;92411.88;;;32.44;32.41
3250;BME280;1637;42.020;23.992;2022-09-16T09:27:14;92414.88;;;32.02;32.50
3250;BME280;1637;42.020;23.992;2022-09-16T09:29:52;92412.06;;;32.46;32.38
3250;BME280;1637;42.020;23.992;2022-09-16T09:32:30;92409.97;;;32.24;31.97
3250;BME280;1637;42.020;23.992;2022-09-16T09:35:13;92408.66;;;32.91;31.79
3250;BME280;1637;42.020;23.992;2022-09-16T09:40:48;92406.66;;;31.74;32.44
3250;BME280;1637;42.020;23.992;2022-09-16T09:43:20;92404.34;;;32.01;32.05
3250;BME280;1637;42.020;23.992;2022-09-16T09:45:55;92394.34;;;32.57;31.25
3250;BME280;1637;42.020;23.992;2022-09-16T09:48:29;92405.88;;;33.44;32.71
3250;BME280;1637;42.020;23.992;2022-09-16T09:51:00;92406.19;;;32.57;32.51
3250;BME280;1637;42.020;23.992;2022-09-16T09:53:34;92397.69;;;33.54;31.61
3250;BME280;1637;42.020;23.992;2022-09-16T09:56:11;92401.88;;;34.33;29.86
3250;BME280;1637;42.020;23.992;2022-09-16T09:58:43;92405.97;;;33.85;30.53
3250;BME280;1637;42.020;23.992;2022-09-16T10:01:13;92364.38;;;33.46;29.83
3250;BME280;1637;42.020;23.992;2022-09-16T10:03:46;92385.50;;;33.34;29.21
3250;BME280;1637;42.020;23.992;2022-09-16T10:06:14;92391.81;;;33.20;31.05
3250;BME280;1637;42.020;23.992;2022-09-16T10:08:44;92399.19;;;33.17;30.23
3250;BME280;1637;42.020;23.992;2022-09-16T10:11:16;92393.84;;;32.96;30.98
3250;BME280;1637;42.020;23.992;2022-09-16T10:13:47;92403.28;;;33.16;31.50
3250;BME280;1637;42.020;23.992;2022-09-16T10:16:18;92393.41;;;34.16;30.62
3250;BME280;1637;42.020;23.992;2022-09-16T10:18:54;92388.34;;;34.30;30.12
3250;BME280;1637;42.020;23.992;2022-09-16T10:21:21;92396.56;;;33.57;30.52
3250;BME280;1637;42.020;23.992;2022-09-16T10:23:56;92409.97;;;34.46;30.64
3250;BME280;1637;42.020;23.992;2022-09-16T10:26:24;92407.09;;;33.82;30.20
3250;BME280;1637;42.020;23.992;2022-09-16T10:28:56;92379.91;;;33.65;29.88
3250;BME280;1637;42.020;23.992;2022-09-16T10:31:27;92395.06;;;33.79;30.75
3250;BME280;1637;42.020;23.992;2022-09-16T10:33:58;92400.31;;;33.44;30.50
3250;BME280;1637;42.020;23.992;2022-09-16T10:36:29;92389.47;;;33.87;30.08
3250;BME280;1637;42.020;23.992;2022-09-16T10:38:58;92380.47;;;33.48;30.28
3250;BME280;1637;42.020;23.992;2022-09-16T10:41:27;92380.00;;;33.90;30.05
3250;BME280;1637;42.020;23.992;2022-09-16T10:43:56;92382.28;;;34.56;29.69
3250;BME280;1637;42.020;23.992;2022-09-16T10:46:24;92367.78;;;34.33;29.23
3250;BME280;1637;42.020;23.992;2022-09-16T10:48:55;92355.44;;;34.11;29.14
3250;BME280;1637;42.020;23.992;2022-09-16T10:51:28;92368.19;;;33.82;29.32
3250;BME280;1637;42.020;23.992;2022-09-16T10:53:57;92359.97;;;33.13;29.96
3250;BME280;1637;42.020;23.992;2022-09-16T10:56:26;92359.75;;;34.04;29.55
3250;BME280;1637;42.020;23.992;2022-09-16T10:59:04;92370.06;;;33.79;29.33
3250;BME280;1637;42.020;23.992;2022-09-16T11:01:39;92370.69;;;33.39;29.47
3250;BME280;1637;42.020;23.992;2022-09-16T11:07:36;92364.38;;;33.46;29.99
3250;BME280;1637;42.020;23.992;2022-09-16T11:10:17;92357.75;;;33.34;29.97
3250;BME280;1637;42.020;23.992;2022-09-16T11:16:04;92330.59;;;33.73;29.39
3250;BME280;1637;42.020;23.992;2022-09-16T11:18:43;92353.63;;;34.46;29.50
3250;BME280;1637;42.020;23.992;2022-09-16T11:21:24;92346.63;;;34.62;29.10
3250;BME280;1637;42.020;23.992;2022-09-16T11:24:17;92349.75;;;34.41;29.06
3250;BME280;1637;42.020;23.992;2022-09-16T11:26:52;92346.25;;;34.33;28.85
3250;BME280;1637;42.020;23.992;2022-09-16T11:29:46;92353.50;;;33.89;29.46
3250;BME280;1637;42.020;23.992;2022-09-16T11:32:21;92353.09;;;33.44;29.85
3250;BME280;1637;42.020;23.992;2022-09-16T11:37:49;92366.28;;;32.98;30.81
3250;BME280;1637;42.020;23.992;2022-09-16T11:40:33;92358.88;;;32.55;31.21
3250;BME280;1637;42.020;23.992;2022-09-16T11:43:27;92358.09;;;32.47;31.98
3250;BME280;1637;42.020;23.992;2022-09-16T11:46:04;92352.25;;;31.56;32.06
3250;BME280;1637;42.020;23.992;2022-09-16T11:48:43;92357.19;;;31.78;32.96
3250;BME280;1637;42.020;23.992;2022-09-16T11:51:25;92348.38;;;31.15;32.69
3250;BME280;1637;42.020;23.992;2022-09-16T11:54:06;92326.56;;;31.12;33.09
3250;BME280;1637;42.020;23.992;2022-09-16T11:56:40;92337.44;;;31.46;32.59
3250;BME280;1637;42.020;23.992;2022-09-16T11:59:14;92337.59;;;31.76;31.84
3250;BME280;1637;42.020;23.992;2022-09-16T12:01:45;92323.28;;;31.57;33.42
3250;BME280;1637;42.020;23.992;2022-09-16T12:04:18;92318.59;;;31.80;32.71
3250;BME280;1637;42.020;23.992;2022-09-16T12:06:52;92320.06;;;31.81;32.65
3250;BME280;1637;42.020;23.992;2022-09-16T12:09:27;92290.94;;;31.95;31.63
3250;BME280;1637;42.020;23.992;2022-09-16T12:12:07;92310.81;;;32.75;31.63
3250;BME280;1637;42.020;23.992;2022-09-16T12:14:39;92312.28;;;32.54;31.84
3250;BME280;1637;42.020;23.992;2022-09-16T12:17:11;92319.03;;;32.07;32.46
3250;BME280;1637;42.020;23.992;2022-09-16T12:19:43;92309.28;;;31.62;32.80
3250;BME280;1637;42.020;23.992;2022-09-16T12:22:17;92310.19;;;31.57;33.18
3250;BME280;1637;42.020;23.992;2022-09-16T12:24:50;92301.00;;;31.26;33.36
3250;BME280;1637;42.020;23.992;2022-09-16T12:27:31;92295.78;;;31.51;34.10
3250;BME280;1637;42.020;23.992;2022-09-16T12:30:04;92303.69;;;31.11;33.60
3250;BME280;1637;42.020;23.992;2022-09-16T12:32:37;92307.72;;;31.10;34.49
3250;BME280;1637;42.020;23.992;2022-09-16T12:35:13;92301.25;;;31.43;34.14
3250;BME280;1637;42.020;23.992;2022-09-16T12:37:45;92297.78;;;31.94;33.63
3250;BME280;1637;42.020;23.992;2022-09-16T12:40:16;92299.25;;;31.95;33.87
3250;BME280;1637;42.020;23.992;2022-09-16T12:46:11;92297.75;;;31.43;33.09
3250;BME280;1637;42.020;23.992;2022-09-16T12:57:42;92305.13;;;31.40;35.03
3250;BME280;1637;42.020;23.992;2022-09-16T13:00:18;92304.03;;;31.80;34.77
3250;BME280;1637;42.020;23.992;2022-09-16T13:02:49;92304.09;;;32.18;33.86
3250;BME280;1637;42.020;23.992;2022-09-16T13:05:22;92306.28;;;32.11;33.23
3250;BME280;1637;42.020;23.992;2022-09-16T13:07:51;92304.38;;;31.76;32.98
3250;BME280;1637;42.020;23.992;2022-09-16T13:10:22;92304.78;;;31.95;33.15
3250;BME280;1637;42.020;23.992;2022-09-16T13:12:52;92294.34;;;31.65;33.51
3250;BME280;1637;42.020;23.992;2022-09-16T13:15:25;92311.16;;;31.67;33.75
3250;BME280;1637;42.020;23.992;2022-09-16T13:17:54;92314.41;;;32.02;32.34
3250;BME280;1637;42.020;23.992;2022-09-16T13:20:26;92312.38;;;32.02;32.85
3250;BME280;1637;42.020;23.992;2022-09-16T13:23:02;92308.81;;;31.79;33.13
3250;BME280;1637;42.020;23.992;2022-09-16T13:25:33;92311.44;;;31.92;33.27
3250;BME280;1637;42.020;23.992;2022-09-16T13:28:03;92311.84;;;32.11;32.84
3250;BME280;1637;42.020;23.992;2022-09-16T13:30:47;92317.31;;;31.89;32.97
3250;BME280;1637;42.020;23.992;2022-09-16T13:33:24;92312.13;;;31.41;33.19
3250;BME280;1637;42.020;23.992;2022-09-16T13:36:03;92303.06;;;31.05;33.83
3250;BME280;1637;42.020;23.992;2022-09-16T13:38:38;92328.22;;;30.86;34.46
3250;BME280;1637;42.020;23.992;2022-09-16T13:41:06;92317.00;;;31.13;33.98
3250;BME280;1637;42.020;23.992;2022-09-16T13:43:36;92311.28;;;31.18;34.05
3250;BME280;1637;42.020;23.992;2022-09-16T13:46:27;92313.91;;;31.24;34.61
3250;BME280;1637;42.020;23.992;2022-09-16T13:49:02;92326.88;;;31.08;35.15
3250;BME280;1637;42.020;23.992;2022-09-16T13:51:34;92317.34;;;30.60;32.99
3250;BME280;1637;42.020;23.992;2022-09-16T13:54:18;92307.16;;;30.34;34.42
3250;BME280;1637;42.020;23.992;2022-09-16T13:56:54;92307.91;;;30.34;33.96
3250;BME280;1637;42.020;23.992;2022-09-16T13:59:35;92304.78;;;30.59;34.73